Time;durP1;ratioP1;P1;durP2;ratioP2;P2;SDS_P1;SDS_P2;PMS_P1;PMS_P2;Temp;Humidity;BMP_temperature;BMP_pressure;BME280_temperature;BME280_humidity;BME280_pressure;Samples;Min_cycle;Max_cycle;Signal;HPM_P1;HPM_P2
2021/06/02 00:02:09;;;;;;;2.23;1.63;;;;;;;;;;5053027;28;20589;-59
2021/06/02 00:04:36;;;;;;;2.47;2.20;;;;;;;;;;5053411;28;20509;-59
2021/06/02 00:07:06;;;;;;;2.17;1.97;;;;;;;;;;5052958;28;20447;-58
2021/06/02 00:09:33;;;;;;;2.90;2.23;;;;;;;;;;5053237;28;20492;-58
2021/06/02 00:12:01;;;;;;;3.57;1.90;;;;;;;;;;5053265;28;20439;-58
2021/06/02 00:14:28;;;;;;;2.97;2.10;;;;;;;;;;5053168;28;20502;-58
2021/06/02 00:16:56;;;;;;;3.17;2.40;;;;;;;;;;5053211;28;20455;-60
2021/06/02 00:19:24;;;;;;;3.80;2.00;;;;;;;;;;5052790;28;20472;-58
2021/06/02 00:21:51;;;;;;;2.10;1.90;;;;;;;;;;5053114;28;20949;-58
2021/06/02 00:24:18;;;;;;;2.30;2.00;;;;;;;;;;5056748;28;20857;-57
2021/06/02 00:26:46;;;;;;;2.77;2.10;;;;;;;;;;5057744;28;20566;-58
2021/06/02 00:29:13;;;;;;;2.27;2.00;;;;;;;;;;5056799;28;20510;-58
2021/06/02 00:31:40;;;;;;;3.37;1.83;;;;;;;;;;5057284;28;20443;-58
2021/06/02 00:34:07;;;;;;;4.67;2.30;;;;;;;;;;5057308;28;20452;-58
2021/06/02 00:36:36;;;;;;;3.43;2.20;;;;;;;;;;5057279;28;20550;-58
2021/06/02 00:39:03;;;;;;;3.20;1.73;;;;;;;;;;5057199;28;20818;-59
2021/06/02 00:41:30;;;;;;;2.80;2.17;;;;;;;;;;5057041;28;20444;-59
2021/06/02 00:43:57;;;;;;;2.20;2.00;;;;;;;;;;5056634;28;20459;-59
2021/06/02 00:46:27;;;;;;;5.03;2.30;;;;;;;;;;5056608;28;20932;-59
2021/06/02 00:48:54;;;;;;;2.43;2.23;;;;;;;;;;5056754;28;20480;-59
2021/06/02 00:51:21;;;;;;;5.13;2.37;;;;;;;;;;5056777;28;20444;-59
2021/06/02 00:53:51;;;;;;;4.07;2.20;;;;;;;;;;5056453;28;20443;-59
2021/06/02 00:56:20;;;;;;;2.53;1.90;;;;;;;;;;5056692;28;20432;-60
2021/06/02 00:58:47;;;;;;;2.27;2.07;;;;;;;;;;5056566;28;20464;-60
2021/06/02 01:01:14;;;;;;;2.27;2.07;;;;;;;;;;5056555;28;20448;-59
2021/06/02 01:03:41;;;;;;;3.20;2.00;;;;;;;;;;5056556;28;20452;-60
2021/06/02 01:06:08;;;;;;;6.77;2.27;;;;;;;;;;5056496;28;20448;-59
2021/06/02 01:08:37;;;;;;;2.90;2.43;;;;;;;;;;5056342;28;20480;-59
2021/06/02 01:11:05;;;;;;;3.37;2.30;;;;;;;;;;5056444;28;20444;-59
2021/06/02 01:13:35;;;;;;;5.20;2.20;;;;;;;;;;5056081;28;20446;-59
2021/06/02 01:16:02;;;;;;;8.10;2.67;;;;;;;;;;5056351;28;20450;-59
2021/06/02 01:18:30;;;;;;;3.10;2.37;;;;;;;;;;5056075;28;20439;-60
2021/06/02 01:21:00;;;;;;;2.50;2.30;;;;;;;;;;5055942;28;20482;-59
2021/06/02 01:23:29;;;;;;;2.20;2.00;;;;;;;;;;5056138;28;20501;-59
2021/06/02 01:25:56;;;;;;;5.33;2.70;;;;;;;;;;5056155;28;20436;-59
2021/06/02 01:28:23;;;;;;;5.13;2.13;;;;;;;;;;5055626;28;20480;-60
2021/06/02 01:30:50;;;;;;;2.73;2.47;;;;;;;;;;5055977;28;20478;-59
2021/06/02 01:33:26;;;;;;;3.40;2.37;;;;;;;;;;5056095;28;20452;-59
2021/06/02 01:36:03;;;;;;;2.73;2.37;;;;;;;;;;5055413;28;20440;-59
2021/06/02 01:38:47;;;;;;;3.20;2.23;;;;;;;;;;5055504;28;20428;-59
2021/06/02 01:41:21;;;;;;;3.73;2.33;;;;;;;;;;5056051;28;20519;-59
2021/06/02 01:44:01;;;;;;;2.30;2.10;;;;;;;;;;5056044;28;20797;-59
2021/06/02 01:46:46;;;;;;;2.83;2.30;;;;;;;;;;5055481;28;20830;-60
2021/06/02 01:49:24;;;;;;;4.27;2.77;;;;;;;;;;5055276;28;21007;-60
2021/06/02 01:52:12;;;;;;;2.87;2.10;;;;;;;;;;5055732;28;20527;-59
2021/06/02 01:54:53;;;;;;;3.60;2.70;;;;;;;;;;5055349;28;20974;-60
2021/06/02 01:57:26;;;;;;;3.53;2.70;;;;;;;;;;5055252;28;20440;-60
2021/06/02 02:00:13;;;;;;;3.03;2.73;;;;;;;;;;5055482;28;20460;-59
2021/06/02 02:02:55;;;;;;;4.27;2.53;;;;;;;;;;5055465;28;20447;-58
2021/06/02 02:05:28;;;;;;;6.40;3.27;;;;;;;;;;5055379;28;20432;-59
2021/06/02 02:08:04;;;;;;;3.20;2.90;;;;;;;;;;5055414;28;20433;-60
2021/06/02 02:10:38;;;;;;;3.63;2.27;;;;;;;;;;5055258;28;20456;-59
2021/06/02 02:13:16;;;;;;;3.03;2.73;;;;;;;;;;5055056;28;20432;-60
2021/06/02 02:15:51;;;;;;;3.13;2.50;;;;;;;;;;5054921;28;20432;-58
2021/06/02 02:18:21;;;;;;;7.23;3.40;;;;;;;;;;5055587;28;20780;-58
2021/06/02 02:20:49;;;;;;;3.83;2.97;;;;;;;;;;5079313;22;20538;-61
2021/06/02 02:23:22;;;;;;;2.57;2.37;;;;;;;;;;5054915;28;20439;-60
2021/06/02 02:25:53;;;;;;;4.57;3.77;;;;;;;;;;5055384;28;20440;-60
2021/06/02 02:28:28;;;;;;;7.27;2.90;;;;;;;;;;5054848;28;20513;-61
2021/06/02 02:30:59;;;;;;;4.13;3.10;;;;;;;;;;5054465;28;20467;-61
2021/06/02 02:33:28;;;;;;;3.77;2.57;;;;;;;;;;5054801;28;20425;-60
2021/06/02 02:36:07;;;;;;;4.03;3.17;;;;;;;;;;5054663;28;20493;-61
2021/06/02 02:38:41;;;;;;;5.00;3.23;;;;;;;;;;5054703;28;20432;-61
2021/06/02 02:41:17;;;;;;;4.70;3.20;;;;;;;;;;5054468;28;20467;-60
2021/06/02 02:43:56;;;;;;;4.10;2.97;;;;;;;;;;5054991;28;20503;-61
2021/06/02 02:46:26;;;;;;;3.10;2.80;;;;;;;;;;5055138;28;20900;-61
2021/06/02 02:48:56;;;;;;;4.60;3.27;;;;;;;;;;5056042;28;20506;-62
2021/06/02 02:51:26;;;;;;;3.77;2.70;;;;;;;;;;5056484;28;20433;-61
2021/06/02 02:53:58;;;;;;;3.47;2.57;;;;;;;;;;5056215;28;20448;-61
2021/06/02 02:56:27;;;;;;;4.93;3.13;;;;;;;;;;5055539;28;20523;-61
2021/06/02 02:59:03;;;;;;;4.33;3.40;;;;;;;;;;5054303;28;20844;-62
2021/06/02 03:01:33;;;;;;;10.00;3.40;;;;;;;;;;5054339;28;20440;-60
2021/06/02 03:04:02;;;;;;;5.83;3.60;;;;;;;;;;5054267;28;20452;-61
2021/06/02 03:06:32;;;;;;;4.43;3.40;;;;;;;;;;5054112;28;20451;-61
2021/06/02 03:09:01;;;;;;;4.93;3.70;;;;;;;;;;5054010;28;20492;-62
2021/06/02 03:11:31;;;;;;;7.37;3.57;;;;;;;;;;5055409;28;20444;-61
2021/06/02 03:14:02;;;;;;;7.77;4.00;;;;;;;;;;5057690;28;20449;-61
2021/06/02 03:16:32;;;;;;;3.87;3.47;;;;;;;;;;5054634;28;20428;-61
2021/06/02 03:19:00;;;;;;;5.70;3.70;;;;;;;;;;5054581;28;20834;-61
2021/06/02 03:21:35;;;;;;;5.57;3.90;;;;;;;;;;5053693;28;20904;-61
2021/06/02 03:24:18;;;;;;;6.83;3.83;;;;;;;;;;5054391;28;20441;-61
2021/06/02 03:26:48;;;;;;;9.23;4.30;;;;;;;;;;5054441;28;20786;-62
2021/06/02 03:29:23;;;;;;;6.40;3.70;;;;;;;;;;5053359;28;20476;-61
2021/06/02 03:32:00;;;;;;;4.70;4.27;;;;;;;;;;5054258;28;20452;-61
2021/06/02 03:34:28;;;;;;;5.23;4.10;;;;;;;;;;5053624;28;20432;-61
2021/06/02 03:37:05;;;;;;;9.27;4.47;;;;;;;;;;5053579;28;20523;-61
2021/06/02 03:39:42;;;;;;;5.30;4.10;;;;;;;;;;5053140;28;20831;-60
2021/06/02 03:42:13;;;;;;;9.33;3.83;;;;;;;;;;5053680;28;20424;-61
2021/06/02 03:45:00;;;;;;;9.60;4.40;;;;;;;;;;5053328;28;20514;-60
2021/06/02 03:47:33;;;;;;;4.23;3.83;;;;;;;;;;5053498;28;20428;-61
2021/06/02 03:50:04;;;;;;;5.13;4.07;;;;;;;;;;5052982;28;21017;-61
2021/06/02 03:52:49;;;;;;;4.23;3.47;;;;;;;;;;5053109;28;20429;-61
2021/06/02 03:55:20;;;;;;;5.13;4.10;;;;;;;;;;5043235;28;21005;-61
2021/06/02 03:57:51;;;;;;;4.27;3.80;;;;;;;;;;5052718;28;20474;-61
2021/06/02 04:00:22;;;;;;;3.80;3.40;;;;;;;;;;5052954;28;20531;-61
2021/06/02 04:03:00;;;;;;;4.73;3.93;;;;;;;;;;5053045;28;20466;-60
2021/06/02 04:08:25;;;;;;;5.97;4.20;;;;;;;;;;5153207;27;20597;-56
2021/06/02 04:11:02;;;;;;;5.90;4.60;;;;;;;;;;5152219;27;20834;-58
2021/06/02 04:13:36;;;;;;;4.10;3.70;;;;;;;;;;5152403;27;20431;-59
2021/06/02 04:16:09;;;;;;;4.00;3.60;;;;;;;;;;5152205;27;20423;-58
2021/06/02 04:18:36;;;;;;;6.70;4.33;;;;;;;;;;5152154;27;20424;-59
2021/06/02 04:21:03;;;;;;;5.00;3.93;;;;;;;;;;5153602;27;20497;-59
2021/06/02 04:23:32;;;;;;;8.17;4.50;;;;;;;;;;5152239;27;20440;-59
2021/06/02 04:26:01;;;;;;;4.60;4.07;;;;;;;;;;5151763;27;20966;-60
2021/06/02 04:28:28;;;;;;;6.03;3.83;;;;;;;;;;5152361;27;20539;-61
2021/06/02 04:31:02;;;;;;;3.90;3.50;;;;;;;;;;5151899;27;20448;-58
2021/06/02 04:33:32;;;;;;;4.30;3.40;;;;;;;;;;5153590;27;20424;-58
2021/06/02 04:35:59;;;;;;;4.43;4.10;;;;;;;;;;5152258;27;20521;-60
2021/06/02 04:38:26;;;;;;;4.90;4.20;;;;;;;;;;5151946;27;20462;-60
2021/06/02 04:40:54;;;;;;;9.30;4.27;;;;;;;;;;5151869;27;20462;-60
2021/06/02 04:43:21;;;;;;;7.50;4.00;;;;;;;;;;5151541;27;20488;-60
2021/06/02 04:45:55;;;;;;;9.57;4.13;;;;;;;;;;5151894;27;20442;-58
2021/06/02 04:48:22;;;;;;;5.83;5.10;;;;;;;;;;5151771;27;20424;-59
2021/06/02 04:50:52;;;;;;;6.70;4.70;;;;;;;;;;5151406;27;20443;-59
2021/06/02 04:53:46;;;;;;;5.13;3.97;;;;;;;;;;5151577;27;20475;-60
2021/06/02 04:56:33;;;;;;;7.37;4.00;;;;;;;;;;5085621;22;20503;-57
2021/06/02 04:59:15;;;;;;;7.70;4.07;;;;;;;;;;5045865;28;20456;-58
2021/06/02 05:02:08;;;;;;;5.90;4.10;;;;;;;;;;5049875;28;20793;-60
2021/06/02 05:04:53;;;;;;;8.90;4.37;;;;;;;;;;5049346;28;20436;-59
2021/06/02 05:07:38;;;;;;;10.80;4.17;;;;;;;;;;5029223;28;20465;-57
2021/06/02 05:10:25;;;;;;;8.50;5.23;;;;;;;;;;5029230;28;20437;-57
2021/06/02 05:13:11;;;;;;;6.33;4.23;;;;;;;;;;5029307;28;20440;-56
2021/06/02 05:16:02;;;;;;;10.53;5.23;;;;;;;;;;5029514;28;20465;-59
2021/06/02 05:18:46;;;;;;;9.03;5.20;;;;;;;;;;5022148;28;20422;-58
2021/06/02 05:24:43;;;;;;;6.43;4.27;;;;;;;;;;5016504;28;21008;-56
2021/06/02 05:27:25;;;;;;;8.67;4.90;;;;;;;;;;5016222;28;20490;-57
2021/06/02 05:30:04;;;;;;;8.70;5.20;;;;;;;;;;5042494;22;20533;-59
2021/06/02 05:35:16;;;;;;;6.63;5.23;;;;;;;;;;5053720;22;20895;-56
2021/06/02 05:38:20;;;;;;;6.83;5.10;;;;;;;;;;5035690;28;20452;-59
2021/06/02 05:40:49;;;;;;;6.07;4.97;;;;;;;;;;5035831;28;20459;-59
2021/06/02 05:43:43;;;;;;;9.77;5.37;;;;;;;;;;5035492;28;20973;-58
2021/06/02 05:46:34;;;;;;;6.47;4.57;;;;;;;;;;5035804;28;20429;-58
2021/06/02 05:49:22;;;;;;;6.30;4.73;;;;;;;;;;5035882;28;20429;-58
2021/06/02 05:52:09;;;;;;;7.87;4.30;;;;;;;;;;5035392;28;20790;-59
2021/06/02 05:55:06;;;;;;;10.40;4.53;;;;;;;;;;5032179;28;20523;-61
2021/06/02 05:57:51;;;;;;;5.37;4.13;;;;;;;;;;5036658;28;20436;-58
2021/06/02 06:00:30;;;;;;;4.53;3.80;;;;;;;;;;5036703;28;20441;-58
2021/06/02 06:03:15;;;;;;;7.43;3.93;;;;;;;;;;5035863;28;20429;-60
2021/06/02 06:05:57;;;;;;;6.67;4.90;;;;;;;;;;5059862;22;20488;-60
2021/06/02 06:08:51;;;;;;;7.07;4.70;;;;;;;;;;5034779;28;20491;-59
2021/06/02 06:11:35;;;;;;;7.47;4.20;;;;;;;;;;5034791;28;20425;-59
2021/06/02 06:14:31;;;;;;;7.63;4.40;;;;;;;;;;5035068;28;20483;-59
2021/06/02 06:17:10;;;;;;;7.00;3.80;;;;;;;;;;5034675;28;20523;-60
2021/06/02 06:19:57;;;;;;;8.30;3.70;;;;;;;;;;5034861;28;20423;-59
2021/06/02 06:22:33;;;;;;;4.63;4.07;;;;;;;;;;5034715;28;20579;-59
2021/06/02 06:25:03;;;;;;;4.10;3.70;;;;;;;;;;5034648;28;20426;-60
2021/06/02 06:27:34;;;;;;;5.60;4.07;;;;;;;;;;5035332;28;20480;-59
2021/06/02 06:30:03;;;;;;;5.97;3.60;;;;;;;;;;5033611;28;20436;-59
2021/06/02 06:32:33;;;;;;;11.10;4.27;;;;;;;;;;5034581;28;20457;-60
2021/06/02 06:35:01;;;;;;;4.70;4.07;;;;;;;;;;5034610;28;20437;-59
2021/06/02 06:37:31;;;;;;;6.67;4.33;;;;;;;;;;5034146;28;20865;-59
2021/06/02 06:40:00;;;;;;;8.43;3.90;;;;;;;;;;5035528;28;21058;-59
2021/06/02 06:42:28;;;;;;;8.30;3.97;;;;;;;;;;5034260;28;20552;-60
2021/06/02 06:44:57;;;;;;;5.30;3.97;;;;;;;;;;5033568;28;20445;-60
2021/06/02 06:47:24;;;;;;;13.60;3.90;;;;;;;;;;5033604;28;21046;-60
2021/06/02 06:49:54;;;;;;;10.50;4.03;;;;;;;;;;5058245;22;20906;-56
2021/06/02 06:52:23;;;;;;;5.97;3.87;;;;;;;;;;5034556;28;20449;-57
2021/06/02 06:54:51;;;;;;;5.00;3.80;;;;;;;;;;5034015;28;20437;-56
2021/06/02 06:57:19;;;;;;;6.40;4.00;;;;;;;;;;5034066;28;20864;-58
2021/06/02 06:59:46;;;;;;;8.60;4.10;;;;;;;;;;5034350;28;20465;-57
2021/06/02 07:02:12;;;;;;;5.87;4.70;;;;;;;;;;5034114;28;20460;-56
2021/06/02 07:04:39;;;;;;;4.30;3.10;;;;;;;;;;5034127;28;20445;-56
2021/06/02 07:07:08;;;;;;;5.57;3.20;;;;;;;;;;5033891;28;20587;-56
2021/06/02 07:09:35;;;;;;;6.10;3.80;;;;;;;;;;5034074;28;20472;-56
2021/06/02 07:12:03;;;;;;;4.27;3.30;;;;;;;;;;5035114;28;20503;-56
2021/06/02 07:14:30;;;;;;;4.33;3.13;;;;;;;;;;5034892;28;20490;-56
2021/06/02 07:17:03;;;;;;;3.20;2.90;;;;;;;;;;5034694;28;20449;-56
2021/06/02 07:19:31;;;;;;;4.60;3.60;;;;;;;;;;5058664;22;20528;-59
2021/06/02 07:21:58;;;;;;;5.33;3.70;;;;;;;;;;5033460;28;20933;-60
2021/06/02 07:24:26;;;;;;;5.87;3.30;;;;;;;;;;5033775;28;20488;-61
2021/06/02 07:26:54;;;;;;;4.97;3.67;;;;;;;;;;5033271;28;20484;-58
2021/06/02 07:29:21;;;;;;;4.93;3.50;;;;;;;;;;5033339;28;20885;-59
2021/06/02 07:31:48;;;;;;;4.30;3.43;;;;;;;;;;5033027;28;20445;-59
2021/06/02 07:34:14;;;;;;;4.77;3.20;;;;;;;;;;5033389;28;20449;-58
2021/06/02 07:36:41;;;;;;;5.70;3.40;;;;;;;;;;5033413;28;20441;-58
2021/06/02 07:39:08;;;;;;;8.23;3.70;;;;;;;;;;5033353;28;20515;-58
2021/06/02 07:41:36;;;;;;;5.70;3.27;;;;;;;;;;5032866;28;20463;-58
2021/06/02 07:44:03;;;;;;;7.00;3.13;;;;;;;;;;5033728;28;20463;-58
2021/06/02 07:46:32;;;;;;;8.53;3.23;;;;;;;;;;5033420;28;21058;-57
2021/06/02 07:48:59;;;;;;;7.57;3.67;;;;;;;;;;5033520;28;20496;-59
2021/06/02 07:51:25;;;;;;;5.80;3.50;;;;;;;;;;5057914;22;20488;-59
2021/06/02 07:53:52;;;;;;;3.30;3.00;;;;;;;;;;5034076;28;20452;-59
2021/06/02 07:56:19;;;;;;;7.83;3.33;;;;;;;;;;5033691;28;20448;-59
2021/06/02 07:58:47;;;;;;;5.13;2.73;;;;;;;;;;5033546;28;20447;-59
2021/06/02 08:01:14;;;;;;;6.73;3.50;;;;;;;;;;5033617;28;20833;-58
2021/06/02 08:03:41;;;;;;;5.63;2.97;;;;;;;;;;5033089;28;20495;-59
2021/06/02 08:06:08;;;;;;;6.70;3.60;;;;;;;;;;5033154;28;20452;-59
2021/06/02 08:08:34;;;;;;;4.93;3.20;;;;;;;;;;5032966;28;20445;-59
2021/06/02 08:11:01;;;;;;;5.03;3.73;;;;;;;;;;5032715;28;20474;-59
2021/06/02 08:13:28;;;;;;;5.93;3.70;;;;;;;;;;5033025;28;20459;-59
2021/06/02 08:15:56;;;;;;;4.53;3.17;;;;;;;;;;5033056;28;20475;-59
2021/06/02 08:18:23;;;;;;;9.00;4.43;;;;;;;;;;5033146;28;20448;-58
2021/06/02 08:20:50;;;;;;;6.00;4.80;;;;;;;;;;5032512;28;20484;-59
2021/06/02 08:23:17;;;;;;;6.90;4.83;;;;;;;;;;5032893;28;20453;-58
2021/06/02 08:25:44;;;;;;;6.10;4.40;;;;;;;;;;5032825;28;20445;-59
2021/06/02 08:28:11;;;;;;;7.10;4.70;;;;;;;;;;5032695;28;20989;-60
2021/06/02 08:30:38;;;;;;;6.83;4.83;;;;;;;;;;5032959;28;20478;-60
2021/06/02 08:33:07;;;;;;;6.90;4.00;;;;;;;;;;5032785;28;20499;-60
2021/06/02 08:35:34;;;;;;;5.20;3.93;;;;;;;;;;5032312;28;20470;-60
2021/06/02 08:38:02;;;;;;;7.30;4.03;;;;;;;;;;5080123;22;20946;-54
2021/06/02 08:40:28;;;;;;;5.40;3.33;;;;;;;;;;5032155;28;20466;-57
2021/06/02 08:42:55;;;;;;;4.97;3.73;;;;;;;;;;5032531;28;20445;-56
2021/06/02 08:45:22;;;;;;;4.87;3.70;;;;;;;;;;5032277;28;20458;-58
2021/06/02 08:47:49;;;;;;;7.53;4.10;;;;;;;;;;5032533;28;20822;-57
2021/06/02 08:50:19;;;;;;;8.13;4.00;;;;;;;;;;5012554;28;20456;-57
2021/06/02 08:52:46;;;;;;;9.27;3.67;;;;;;;;;;5013205;28;20940;-57
2021/06/02 08:55:14;;;;;;;5.80;4.83;;;;;;;;;;5016349;28;20454;-57
2021/06/02 08:57:41;;;;;;;6.47;4.53;;;;;;;;;;5016125;28;20821;-58
2021/06/02 09:00:09;;;;;;;5.87;4.90;;;;;;;;;;5016424;28;20468;-57
2021/06/02 09:02:35;;;;;;;6.00;5.10;;;;;;;;;;5016710;28;20603;-57
2021/06/02 09:05:02;;;;;;;9.53;4.43;;;;;;;;;;5016224;28;20539;-57
2021/06/02 09:07:31;;;;;;;9.80;4.33;;;;;;;;;;5016515;28;20480;-58
2021/06/02 09:10:01;;;;;;;12.13;4.70;;;;;;;;;;5017317;28;20521;-58
2021/06/02 09:12:34;;;;;;;6.87;5.77;;;;;;;;;;5016396;28;20479;-57
2021/06/02 09:15:02;;;;;;;7.37;4.73;;;;;;;;;;5016168;28;20455;-57
2021/06/02 09:17:28;;;;;;;6.13;5.10;;;;;;;;;;5016353;28;20447;-57
2021/06/02 09:19:55;;;;;;;9.03;5.97;;;;;;;;;;5016203;28;20480;-57
2021/06/02 09:22:23;;;;;;;6.00;5.33;;;;;;;;;;5015877;28;20450;-57
2021/06/02 09:24:52;;;;;;;7.10;4.70;;;;;;;;;;5056786;22;20506;-59
2021/06/02 09:27:20;;;;;;;6.83;4.70;;;;;;;;;;5035536;28;20494;-59
2021/06/02 09:29:53;;;;;;;8.10;5.67;;;;;;;;;;5036373;28;20521;-59
2021/06/02 09:32:21;;;;;;;4.70;3.87;;;;;;;;;;5036158;28;20455;-59
2021/06/02 09:34:47;;;;;;;9.33;5.07;;;;;;;;;;5035994;28;20506;-59
2021/06/02 09:37:15;;;;;;;6.10;4.60;;;;;;;;;;5036215;28;20447;-60
2021/06/02 09:39:42;;;;;;;8.27;5.37;;;;;;;;;;5035802;28;20967;-59
2021/06/02 09:42:20;;;;;;;7.00;5.00;;;;;;;;;;5035586;28;20952;-59
2021/06/02 09:45:02;;;;;;;6.43;5.83;;;;;;;;;;5035043;28;20470;-59
2021/06/02 09:47:41;;;;;;;7.03;4.87;;;;;;;;;;5035676;28;20471;-58
2021/06/02 09:50:08;;;;;;;8.57;6.50;;;;;;;;;;5036389;28;20532;-57
2021/06/02 09:52:39;;;;;;;7.13;4.90;;;;;;;;;;5035875;28;20448;-58
2021/06/02 09:55:12;;;;;;;8.10;5.03;;;;;;;;;;5050817;22;20460;-57
2021/06/02 09:57:52;;;;;;;8.60;5.70;;;;;;;;;;5015470;28;20446;-56
2021/06/02 10:00:19;;;;;;;7.40;5.70;;;;;;;;;;5015372;28;20433;-57
2021/06/02 10:02:57;;;;;;;7.23;5.60;;;;;;;;;;5015061;28;20449;-59
2021/06/02 10:05:24;;;;;;;7.30;5.80;;;;;;;;;;5014771;28;20465;-58
2021/06/02 10:07:50;;;;;;;6.17;5.30;;;;;;;;;;5014657;28;20489;-58
2021/06/02 10:10:19;;;;;;;6.20;5.70;;;;;;;;;;5014885;28;20445;-57
2021/06/02 10:12:59;;;;;;;5.83;5.20;;;;;;;;;;5014543;28;20820;-57
2021/06/02 10:15:31;;;;;;;7.47;5.70;;;;;;;;;;5015328;28;20523;-58
2021/06/02 10:17:58;;;;;;;6.03;4.87;;;;;;;;;;5014582;28;20477;-57
2021/06/02 10:20:25;;;;;;;11.30;5.40;;;;;;;;;;5014765;28;20448;-57
2021/06/02 10:22:52;;;;;;;6.47;5.50;;;;;;;;;;5014734;28;20448;-57
2021/06/02 10:25:20;;;;;;;5.80;5.20;;;;;;;;;;5014483;28;20470;-58
2021/06/02 10:27:49;;;;;;;9.27;5.80;;;;;;;;;;5014758;28;20489;-59
2021/06/02 10:30:17;;;;;;;5.90;5.30;;;;;;;;;;5015866;28;20459;-58
2021/06/02 10:32:50;;;;;;;9.30;6.73;;;;;;;;;;5014922;28;20459;-57
2021/06/02 10:35:17;;;;;;;6.33;5.73;;;;;;;;;;5014458;28;20518;-59
2021/06/02 10:37:45;;;;;;;5.80;5.23;;;;;;;;;;5014556;28;20513;-59
2021/06/02 10:40:13;;;;;;;7.63;5.47;;;;;;;;;;5013984;28;20500;-58
2021/06/02 10:42:45;;;;;;;8.10;5.20;;;;;;;;;;5014257;28;20448;-59
2021/06/02 10:45:17;;;;;;;5.40;4.90;;;;;;;;;;5014481;28;20471;-58
2021/06/02 10:47:45;;;;;;;7.03;5.23;;;;;;;;;;5014006;28;20982;-58
2021/06/02 10:50:26;;;;;;;6.03;4.57;;;;;;;;;;5014241;28;20454;-57
2021/06/02 10:52:53;;;;;;;5.77;5.17;;;;;;;;;;5014324;28;20421;-56
2021/06/02 10:55:36;;;;;;;7.20;5.37;;;;;;;;;;5014451;28;20485;-57
2021/06/02 10:58:19;;;;;;;8.30;5.20;;;;;;;;;;5014176;28;20425;-57
2021/06/02 11:00:46;;;;;;;5.90;5.13;;;;;;;;;;5014404;28;20456;-57
2021/06/02 11:03:26;;;;;;;5.80;5.17;;;;;;;;;;5014016;28;20556;-57
2021/06/02 11:05:59;;;;;;;7.00;6.20;;;;;;;;;;5015654;28;20461;-56
2021/06/02 11:08:50;;;;;;;6.90;5.17;;;;;;;;;;5033004;22;20940;-60
2021/06/02 11:11:20;;;;;;;5.73;5.20;;;;;;;;;;5023190;28;20963;-60
2021/06/02 11:14:11;;;;;;;6.10;5.27;;;;;;;;;;5033846;28;20466;-60
2021/06/02 11:16:38;;;;;;;5.07;4.67;;;;;;;;;;5032839;28;20467;-60
2021/06/02 11:19:13;;;;;;;6.90;6.20;;;;;;;;;;5033836;28;20470;-59
2021/06/02 11:21:44;;;;;;;6.00;5.07;;;;;;;;;;5034361;28;20435;-60
2021/06/02 11:24:25;;;;;;;14.87;11.83;;;;;;;;;;5033528;28;20470;-61
2021/06/02 11:26:52;;;;;;;6.10;5.50;;;;;;;;;;5033762;28;20500;-61
2021/06/02 11:29:19;;;;;;;6.63;5.30;;;;;;;;;;5033547;28;20468;-62
2021/06/02 11:31:46;;;;;;;5.63;4.60;;;;;;;;;;5033611;28;20467;-60
2021/06/02 11:34:27;;;;;;;5.50;5.00;;;;;;;;;;5033109;28;20442;-59
2021/06/02 11:37:04;;;;;;;9.13;5.10;;;;;;;;;;5033451;28;20934;-59
2021/06/02 11:39:31;;;;;;;7.60;5.47;;;;;;;;;;5067763;22;20499;-57
2021/06/02 11:41:59;;;;;;;5.47;4.97;;;;;;;;;;5067773;22;20497;-60
2021/06/02 11:44:27;;;;;;;7.13;6.43;;;;;;;;;;5059193;22;20494;-57
2021/06/02 11:46:53;;;;;;;7.20;5.50;;;;;;;;;;5032675;28;21012;-56
2021/06/02 11:49:29;;;;;;;8.90;4.70;;;;;;;;;;5033132;28;20921;-56
2021/06/02 11:51:56;;;;;;;4.97;4.33;;;;;;;;;;5033531;28;20455;-57
2021/06/02 11:54:22;;;;;;;6.60;4.20;;;;;;;;;;5032827;28;20559;-58
2021/06/02 11:56:49;;;;;;;6.20;5.30;;;;;;;;;;5032861;28;20458;-58
2021/06/02 11:59:16;;;;;;;5.80;5.17;;;;;;;;;;5032551;28;20949;-58
2021/06/02 12:01:43;;;;;;;5.90;5.07;;;;;;;;;;5032651;28;20936;-59
2021/06/02 12:04:09;;;;;;;8.93;6.60;;;;;;;;;;5032607;28;20985;-59
2021/06/02 12:06:37;;;;;;;9.50;8.23;;;;;;;;;;5032967;28;20501;-59
2021/06/02 12:09:10;;;;;;;8.07;7.00;;;;;;;;;;5032494;28;20460;-59
2021/06/02 12:11:37;;;;;;;6.80;6.07;;;;;;;;;;5033745;28;20791;-58
2021/06/02 12:14:04;;;;;;;15.17;13.67;;;;;;;;;;5032588;28;21031;-58
2021/06/02 12:16:31;;;;;;;5.90;5.40;;;;;;;;;;5057579;22;20491;-60
2021/06/02 12:18:59;;;;;;;5.63;5.13;;;;;;;;;;5033187;28;20536;-61
2021/06/02 12:21:27;;;;;;;5.20;4.40;;;;;;;;;;5033192;28;20519;-60
2021/06/02 12:23:57;;;;;;;6.00;4.87;;;;;;;;;;5032773;28;20444;-61
2021/06/02 12:26:33;;;;;;;6.70;4.10;;;;;;;;;;5032706;28;20985;-60
2021/06/02 12:29:00;;;;;;;5.60;5.10;;;;;;;;;;5059322;22;20498;-59
2021/06/02 12:31:38;;;;;;;4.73;4.33;;;;;;;;;;5036072;28;20420;-59
2021/06/02 12:34:06;;;;;;;5.73;4.40;;;;;;;;;;5036276;28;20442;-58
2021/06/02 12:36:33;;;;;;;5.40;4.37;;;;;;;;;;5036401;28;20450;-58
2021/06/02 12:39:09;;;;;;;4.47;4.17;;;;;;;;;;5036477;28;20463;-57
2021/06/02 12:41:36;;;;;;;5.33;4.83;;;;;;;;;;5036422;28;20442;-57
2021/06/02 12:44:03;;;;;;;5.70;5.10;;;;;;;;;;5051955;22;20855;-60
2021/06/02 12:46:30;;;;;;;7.63;4.97;;;;;;;;;;5036625;28;20465;-62
2021/06/02 12:48:57;;;;;;;5.77;4.87;;;;;;;;;;5036754;28;20486;-60
2021/06/02 12:51:24;;;;;;;6.53;5.20;;;;;;;;;;5036495;28;20449;-60
2021/06/02 12:53:51;;;;;;;6.90;5.77;;;;;;;;;;5036334;28;20475;-61
2021/06/02 12:56:21;;;;;;;8.17;4.87;;;;;;;;;;5036479;28;20545;-61
2021/06/02 12:58:55;;;;;;;5.70;4.90;;;;;;;;;;5035901;28;20448;-61
2021/06/02 13:01:23;;;;;;;7.57;5.20;;;;;;;;;;5035932;28;20452;-61
2021/06/02 13:03:50;;;;;;;5.70;4.80;;;;;;;;;;5060404;22;20495;-61
2021/06/02 13:06:18;;;;;;;8.73;5.53;;;;;;;;;;5036352;28;20435;-60
2021/06/02 13:08:44;;;;;;;6.97;5.07;;;;;;;;;;5035974;28;20483;-60
2021/06/02 13:11:12;;;;;;;7.30;4.87;;;;;;;;;;5035879;28;20935;-62
2021/06/02 13:13:41;;;;;;;5.40;5.00;;;;;;;;;;5035649;28;20480;-64
2021/06/02 13:16:08;;;;;;;6.40;5.67;;;;;;;;;;5060391;22;20527;-64
2021/06/02 13:18:35;;;;;;;5.10;4.47;;;;;;;;;;5059901;22;20577;-61
2021/06/02 13:21:12;;;;;;;5.57;5.10;;;;;;;;;;5035582;28;20431;-60
2021/06/02 13:23:39;;;;;;;5.93;5.43;;;;;;;;;;5035480;28;20532;-60
2021/06/02 13:26:07;;;;;;;5.77;4.87;;;;;;;;;;5035268;28;20917;-62
2021/06/02 13:28:41;;;;;;;6.47;5.27;;;;;;;;;;5034985;28;20487;-63
2021/06/02 13:31:10;;;;;;;7.20;4.43;;;;;;;;;;5036179;28;20434;-61
2021/06/02 13:33:41;;;;;;;7.33;4.40;;;;;;;;;;5034721;28;20447;-60
2021/06/02 13:36:10;;;;;;;5.20;4.70;;;;;;;;;;5051459;22;20591;-63
2021/06/02 13:38:37;;;;;;;6.37;4.63;;;;;;;;;;5035425;28;20436;-62
2021/06/02 13:41:04;;;;;;;6.30;4.73;;;;;;;;;;5036420;28;20532;-62
2021/06/02 13:43:40;;;;;;;6.63;5.07;;;;;;;;;;5035570;28;20446;-65
2021/06/02 13:46:09;;;;;;;4.73;3.97;;;;;;;;;;5035636;28;20472;-65
2021/06/02 13:48:38;;;;;;;7.67;5.33;;;;;;;;;;5036268;28;20523;-63
2021/06/02 13:51:12;;;;;;;6.93;5.57;;;;;;;;;;5068642;22;20987;-59
2021/06/02 13:53:54;;;;;;;4.97;4.57;;;;;;;;;;5035997;28;20436;-60
2021/06/02 13:56:20;;;;;;;5.90;5.30;;;;;;;;;;5034654;28;20502;-59
2021/06/02 13:59:04;;;;;;;6.40;4.93;;;;;;;;;;5034650;28;21040;-60
2021/06/02 14:01:31;;;;;;;5.60;5.10;;;;;;;;;;5014953;28;20433;-59
2021/06/02 14:03:59;;;;;;;9.67;5.30;;;;;;;;;;5014994;28;20448;-58
2021/06/02 14:06:26;;;;;;;5.83;4.40;;;;;;;;;;5055990;22;20490;-60
2021/06/02 14:08:52;;;;;;;4.73;4.33;;;;;;;;;;5034307;28;20491;-60
2021/06/02 14:11:22;;;;;;;5.30;4.80;;;;;;;;;;5034748;28;20448;-60
2021/06/02 14:13:49;;;;;;;5.50;5.00;;;;;;;;;;5034692;28;20448;-60
2021/06/02 14:16:18;;;;;;;5.60;4.20;;;;;;;;;;5034230;28;20494;-60
2021/06/02 14:18:45;;;;;;;7.00;4.53;;;;;;;;;;5034430;28;20445;-61
2021/06/02 14:21:13;;;;;;;4.80;4.40;;;;;;;;;;5035110;28;20574;-61
2021/06/02 14:23:40;;;;;;;5.00;4.50;;;;;;;;;;5034842;28;20486;-61
2021/06/02 14:26:07;;;;;;;7.63;4.60;;;;;;;;;;5068303;22;20995;-56
2021/06/02 14:28:34;;;;;;;5.27;4.77;;;;;;;;;;5034046;28;20874;-59
2021/06/02 14:31:01;;;;;;;4.67;4.20;;;;;;;;;;5034115;28;20441;-58
2021/06/02 14:33:28;;;;;;;7.10;4.77;;;;;;;;;;5055170;22;20497;-60
2021/06/02 14:35:54;;;;;;;6.30;4.93;;;;;;;;;;5014811;28;20431;-61
2021/06/02 14:38:23;;;;;;;8.77;6.27;;;;;;;;;;5014324;28;20450;-61
2021/06/02 14:40:49;;;;;;;7.40;5.50;;;;;;;;;;5014775;28;20459;-59
2021/06/02 14:43:16;;;;;;;8.50;5.40;;;;;;;;;;5014166;28;20465;-61
2021/06/02 14:45:43;;;;;;;10.20;7.17;;;;;;;;;;5015195;28;20464;-60
2021/06/02 14:48:10;;;;;;;8.10;5.77;;;;;;;;;;5050870;22;20493;-57
2021/06/02 14:50:37;;;;;;;6.63;5.37;;;;;;;;;;5033623;28;20456;-57
2021/06/02 14:53:04;;;;;;;7.63;5.23;;;;;;;;;;5033972;28;20611;-55
2021/06/02 14:55:32;;;;;;;5.30;4.90;;;;;;;;;;5033890;28;20469;-57
2021/06/02 14:57:59;;;;;;;5.17;4.30;;;;;;;;;;5034080;28;20468;-58
2021/06/02 15:00:29;;;;;;;6.07;4.97;;;;;;;;;;5033643;28;20942;-58
2021/06/02 15:02:56;;;;;;;4.60;4.20;;;;;;;;;;5033730;28;20526;-59
2021/06/02 15:05:23;;;;;;;6.50;4.80;;;;;;;;;;5047961;22;20554;-58
2021/06/02 15:07:49;;;;;;;7.00;3.97;;;;;;;;;;5034506;28;20491;-59
2021/06/02 15:10:16;;;;;;;4.90;4.40;;;;;;;;;;5034907;28;20455;-60
2021/06/02 15:12:45;;;;;;;4.60;4.20;;;;;;;;;;5034893;28;20876;-60
2021/06/02 15:15:13;;;;;;;5.77;4.30;;;;;;;;;;5035715;28;20526;-61
2021/06/02 15:17:40;;;;;;;6.53;4.07;;;;;;;;;;5035791;28;20443;-61